Terminal Aerodrome Forecast
Issued by NWS

Home | Current Version | Previous Version | Text Only | Print | Product List | Glossary On
Versions: 1 2 3 4 5 6 7 8 9 10 11 12
000
FTUS46 KSEW 210521
TAFPAE
TAF
KPAE 210521Z 2106/2206 34006KT P6SM SCT200
     FM211300 VRB03KT P6SM SCT002
     FM211600 35006KT P6SM SKC
     FM220500 VRB03KT P6SM SKC=

USA.gov is the U.S. government's official web portal to all federal, state and local government web resources and services.